sensor_id;sensor_type;location;lat;lon;timestamp;pressure;altitude;pressure_sealevel;temperature;humidity
38786;BME280;24535;45.508;12.252;2022-11-04T01:24:55;100643.41;;;18.35;77.04
38786;BME280;24535;45.508;12.252;2022-11-04T02:04:10;100564.97;;;18.54;76.88
38786;BME280;24535;45.508;12.252;2022-11-04T02:06:56;100552.84;;;18.60;76.27
38786;BME280;24535;45.508;12.252;2022-11-04T02:16:27;100525.28;;;18.77;76.66
38786;BME280;24535;45.508;12.252;2022-11-04T02:30:49;100469.94;;;19.12;77.59
38786;BME280;24535;45.508;12.252;2022-11-04T02:39:10;100449.63;;;19.35;77.04
38786;BME280;24535;45.508;12.252;2022-11-04T02:44:49;100440.78;;;19.43;76.68
38786;BME280;24535;45.508;12.252;2022-11-04T02:47:23;100438.78;;;19.45;76.71
38786;BME280;24535;45.508;12.252;2022-11-04T02:49:51;100433.25;;;19.46;76.50
38786;BME280;24535;45.508;12.252;2022-11-04T03:00:50;100393.50;;;19.51;76.38
38786;BME280;24535;45.508;12.252;2022-11-04T03:03:26;100379.13;;;19.52;75.93
38786;BME280;24535;45.508;12.252;2022-11-04T03:05:57;100371.97;;;19.53;75.63
38786;BME280;24535;45.508;12.252;2022-11-04T03:14:58;100362.44;;;19.59;75.50
38786;BME280;24535;45.508;12.252;2022-11-04T03:27:53;100324.38;;;19.65;75.31
38786;BME280;24535;45.508;12.252;2022-11-04T03:52:53;100297.72;;;19.88;74.96
38786;BME280;24535;45.508;12.252;2022-11-04T04:17:29;100266.03;;;20.08;73.43
38786;BME280;24535;45.508;12.252;2022-11-04T04:20:12;100268.47;;;20.17;72.80
38786;BME280;24535;45.508;12.252;2022-11-04T04:22:42;100274.66;;;20.18;73.05
38786;BME280;24535;45.508;12.252;2022-11-04T04:25:12;100263.97;;;20.18;73.13
38786;BME280;24535;45.508;12.252;2022-11-04T04:27:57;100261.31;;;20.18;72.84
38786;BME280;24535;45.508;12.252;2022-11-04T04:30:23;100255.28;;;20.16;72.38
38786;BME280;24535;45.508;12.252;2022-11-04T04:33:07;100244.75;;;20.14;72.41
38786;BME280;24535;45.508;12.252;2022-11-04T04:35:42;100248.28;;;20.15;72.10
38786;BME280;24535;45.508;12.252;2022-11-04T04:38:25;100237.22;;;20.18;71.86
38786;BME280;24535;45.508;12.252;2022-11-04T04:43:54;100228.19;;;20.19;72.15
38786;BME280;24535;45.508;12.252;2022-11-04T04:46:39;100212.97;;;20.19;71.94
38786;BME280;24535;45.508;12.252;2022-11-04T04:49:07;100210.47;;;20.18;72.29
38786;BME280;24535;45.508;12.252;2022-11-04T04:51:37;100201.59;;;20.17;72.43
38786;BME280;24535;45.508;12.252;2022-11-04T04:54:03;100201.44;;;20.19;72.61
38786;BME280;24535;45.508;12.252;2022-11-04T04:56:29;100197.75;;;20.20;72.15
38786;BME280;24535;45.508;12.252;2022-11-04T04:58:54;100201.91;;;20.22;72.19
38786;BME280;24535;45.508;12.252;2022-11-04T05:01:20;100196.38;;;20.24;72.21
38786;BME280;24535;45.508;12.252;2022-11-04T05:03:45;100186.34;;;20.26;72.13
38786;BME280;24535;45.508;12.252;2022-11-04T05:06:11;100178.97;;;20.28;72.04
38786;BME280;24535;45.508;12.252;2022-11-04T05:08:56;100171.94;;;20.27;71.63
38786;BME280;24535;45.508;12.252;2022-11-04T05:11:24;100183.13;;;20.31;71.96
38786;BME280;24535;45.508;12.252;2022-11-04T05:13:52;100176.75;;;20.32;71.54
38786;BME280;24535;45.508;12.252;2022-11-04T05:16:18;100170.78;;;20.30;72.03
38786;BME280;24535;45.508;12.252;2022-11-04T05:18:43;100172.44;;;20.31;71.46
38786;BME280;24535;45.508;12.252;2022-11-04T05:23:45;100167.91;;;20.31;71.44
38786;BME280;24535;45.508;12.252;2022-11-04T05:26:11;100166.06;;;20.32;71.28
38786;BME280;24535;45.508;12.252;2022-11-04T05:28:48;100158.22;;;20.30;71.71
38786;BME280;24535;45.508;12.252;2022-11-04T05:31:14;100139.50;;;20.30;71.39
38786;BME280;24535;45.508;12.252;2022-11-04T05:33:39;100148.34;;;20.31;71.00
38786;BME280;24535;45.508;12.252;2022-11-04T05:36:13;100146.31;;;20.33;71.21
38786;BME280;24535;45.508;12.252;2022-11-04T05:38:39;100141.63;;;20.35;71.51
38786;BME280;24535;45.508;12.252;2022-11-04T05:41:05;100136.91;;;20.37;71.33
38786;BME280;24535;45.508;12.252;2022-11-04T05:43:32;100139.59;;;20.37;71.12
38786;BME280;24535;45.508;12.252;2022-11-04T05:45:59;100138.59;;;20.38;71.32
38786;BME280;24535;45.508;12.252;2022-11-04T05:48:30;100129.06;;;20.35;71.64
38786;BME280;24535;45.508;12.252;2022-11-04T05:56:02;100138.41;;;20.39;71.04
38786;BME280;24535;45.508;12.252;2022-11-04T05:58:27;100142.56;;;20.42;71.48
38786;BME280;24535;45.508;12.252;2022-11-04T06:03:43;100140.53;;;20.44;71.28
38786;BME280;24535;45.508;12.252;2022-11-04T06:06:08;100137.03;;;20.43;71.39
38786;BME280;24535;45.508;12.252;2022-11-04T06:08:36;100136.00;;;20.44;70.94
38786;BME280;24535;45.508;12.252;2022-11-04T06:14:30;100138.03;;;20.42;70.52
38786;BME280;24535;45.508;12.252;2022-11-04T06:16:55;100140.34;;;20.45;70.60
38786;BME280;24535;45.508;12.252;2022-11-04T06:19:21;100147.38;;;20.46;70.69
38786;BME280;24535;45.508;12.252;2022-11-04T06:21:48;100141.66;;;20.49;69.98
38786;BME280;24535;45.508;12.252;2022-11-04T06:24:17;100141.66;;;20.49;70.01
38786;BME280;24535;45.508;12.252;2022-11-04T06:26:45;100132.81;;;20.49;70.22
38786;BME280;24535;45.508;12.252;2022-11-04T06:29:14;100135.50;;;20.49;70.30
38786;BME280;24535;45.508;12.252;2022-11-04T06:31:42;100121.94;;;20.51;70.04
38786;BME280;24535;45.508;12.252;2022-11-04T06:34:08;100126.91;;;20.54;70.29
38786;BME280;24535;45.508;12.252;2022-11-04T06:36:36;100118.25;;;20.52;70.12
38786;BME280;24535;45.508;12.252;2022-11-04T06:39:03;100120.19;;;20.58;70.00
38786;BME280;24535;45.508;12.252;2022-11-04T06:41:29;100107.81;;;20.57;69.85
38786;BME280;24535;45.508;12.252;2022-11-04T06:43:55;100115.84;;;20.57;69.44
38786;BME280;24535;45.508;12.252;2022-11-04T06:46:24;100119.19;;;20.59;69.58
38786;BME280;24535;45.508;12.252;2022-11-04T06:48:50;100108.47;;;20.59;69.55
38786;BME280;24535;45.508;12.252;2022-11-04T06:51:16;100113.63;;;20.60;69.50
38786;BME280;24535;45.508;12.252;2022-11-04T06:53:42;100111.97;;;20.59;68.98
38786;BME280;24535;45.508;12.252;2022-11-04T06:56:08;100110.97;;;20.60;68.86
38786;BME280;24535;45.508;12.252;2022-11-04T06:58:34;100114.66;;;20.59;69.04
38786;BME280;24535;45.508;12.252;2022-11-04T07:00:59;100113.00;;;20.58;69.02
38786;BME280;24535;45.508;12.252;2022-11-04T07:03:24;100117.34;;;20.59;69.43
38786;BME280;24535;45.508;12.252;2022-11-04T07:05:50;100117.34;;;20.59;69.09
38786;BME280;24535;45.508;12.252;2022-11-04T07:08:36;100115.13;;;20.63;68.78
38786;BME280;24535;45.508;12.252;2022-11-04T07:11:02;100104.78;;;20.60;69.21
38786;BME280;24535;45.508;12.252;2022-11-04T07:13:36;100108.09;;;20.62;69.08
38786;BME280;24535;45.508;12.252;2022-11-04T07:16:33;100111.63;;;20.62;68.93
38786;BME280;24535;45.508;12.252;2022-11-04T07:19:00;100117.81;;;20.63;69.03
38786;BME280;24535;45.508;12.252;2022-11-04T07:21:25;100116.13;;;20.62;68.87
38786;BME280;24535;45.508;12.252;2022-11-04T07:23:51;100113.91;;;20.65;68.92
38786;BME280;24535;45.508;12.252;2022-11-04T07:26:17;100116.97;;;20.62;69.16
38786;BME280;24535;45.508;12.252;2022-11-04T07:28:42;100126.09;;;20.68;69.32
38786;BME280;24535;45.508;12.252;2022-11-04T07:31:10;100120.75;;;20.68;69.08
38786;BME280;24535;45.508;12.252;2022-11-04T07:33:36;100115.22;;;20.69;69.05
38786;BME280;24535;45.508;12.252;2022-11-04T07:36:03;100115.88;;;20.71;68.80
38786;BME280;24535;45.508;12.252;2022-11-04T07:38:29;100114.03;;;20.72;68.58
38786;BME280;24535;45.508;12.252;2022-11-04T07:40:56;100124.53;;;20.73;68.74
38786;BME280;24535;45.508;12.252;2022-11-04T07:43:22;100114.66;;;20.74;68.43
38786;BME280;24535;45.508;12.252;2022-11-04T07:46:10;100110.97;;;20.75;68.05
38786;BME280;24535;45.508;12.252;2022-11-04T07:48:41;100118.81;;;20.77;68.35
38786;BME280;24535;45.508;12.252;2022-11-04T07:51:09;100125.00;;;20.77;67.66
38786;BME280;24535;45.508;12.252;2022-11-04T07:53:37;100114.28;;;20.77;67.85
38786;BME280;24535;45.508;12.252;2022-11-04T07:56:05;100115.94;;;20.78;67.49
38786;BME280;24535;45.508;12.252;2022-11-04T07:58:31;100119.66;;;20.77;67.64
38786;BME280;24535;45.508;12.252;2022-11-04T08:01:04;100130.34;;;20.77;67.36
38786;BME280;24535;45.508;12.252;2022-11-04T08:03:34;100131.38;;;20.76;67.26
38786;BME280;24535;45.508;12.252;2022-11-04T08:06:03;100123.34;;;20.76;67.56
38786;BME280;24535;45.508;12.252;2022-11-04T08:08:41;100128.16;;;20.81;67.13
38786;BME280;24535;45.508;12.252;2022-11-04T08:11:14;100139.88;;;20.80;67.04
38786;BME280;24535;45.508;12.252;2022-11-04T08:13:40;100138.22;;;20.79;67.00
38786;BME280;24535;45.508;12.252;2022-11-04T08:16:10;100136.53;;;20.78;66.68
38786;BME280;24535;45.508;12.252;2022-11-04T08:18:37;100144.09;;;20.74;66.82
38786;BME280;24535;45.508;12.252;2022-11-04T08:21:03;100154.19;;;20.72;66.02
38786;BME280;24535;45.508;12.252;2022-11-04T08:23:29;100155.56;;;20.68;66.78
38786;BME280;24535;45.508;12.252;2022-11-04T08:25:55;100160.25;;;20.66;66.61
38786;BME280;24535;45.508;12.252;2022-11-04T08:28:21;100166.00;;;20.63;66.50
38786;BME280;24535;45.508;12.252;2022-11-04T08:31:00;100171.50;;;20.61;66.23
38786;BME280;24535;45.508;12.252;2022-11-04T08:33:30;100173.72;;;20.58;66.62
38786;BME280;24535;45.508;12.252;2022-11-04T08:35:59;100190.31;;;20.53;66.65
38786;BME280;24535;45.508;12.252;2022-11-04T08:38:25;100187.16;;;20.49;66.53
38786;BME280;24535;45.508;12.252;2022-11-04T08:40:50;100185.00;;;20.45;66.24
38786;BME280;24535;45.508;12.252;2022-11-04T08:43:16;100199.94;;;20.39;67.21
38786;BME280;24535;45.508;12.252;2022-11-04T08:45:45;100191.09;;;20.39;66.58
38786;BME280;24535;45.508;12.252;2022-11-04T08:48:12;100179.09;;;20.35;66.88
38786;BME280;24535;45.508;12.252;2022-11-04T08:50:38;100180.09;;;20.34;66.84
38786;BME280;24535;45.508;12.252;2022-11-04T08:53:17;100183.59;;;20.34;66.42
38786;BME280;24535;45.508;12.252;2022-11-04T08:55:43;100176.75;;;20.32;66.30
38786;BME280;24535;45.508;12.252;2022-11-04T08:58:08;100191.31;;;20.29;66.56
38786;BME280;24535;45.508;12.252;2022-11-04T09:00:34;100176.13;;;20.30;66.06
38786;BME280;24535;45.508;12.252;2022-11-04T09:03:00;100149.72;;;20.27;65.72
38786;BME280;24535;45.508;12.252;2022-11-04T09:05:26;100143.22;;;20.21;65.52
38786;BME280;24535;45.508;12.252;2022-11-04T09:07:53;100139.09;;;20.18;65.74
38786;BME280;24535;45.508;12.252;2022-11-04T09:10:18;100123.19;;;20.17;65.75
38786;BME280;24535;45.508;12.252;2022-11-04T09:12:44;100113.53;;;20.16;65.17
38786;BME280;24535;45.508;12.252;2022-11-04T09:15:10;100123.88;;;20.19;65.67
38786;BME280;24535;45.508;12.252;2022-11-04T09:17:35;100106.81;;;20.20;65.71
38786;BME280;24535;45.508;12.252;2022-11-04T09:20:01;100087.72;;;20.23;66.13
38786;BME280;24535;45.508;12.252;2022-11-04T09:22:27;100093.69;;;20.25;65.44
38786;BME280;24535;45.508;12.252;2022-11-04T09:24:52;100090.88;;;20.27;65.36
38786;BME280;24535;45.508;12.252;2022-11-04T09:27:18;100092.34;;;20.29;64.90
38786;BME280;24535;45.508;12.252;2022-11-04T09:29:46;100099.16;;;20.32;65.38
38786;BME280;24535;45.508;12.252;2022-11-04T09:32:12;100096.69;;;20.30;65.69
38786;BME280;24535;45.508;12.252;2022-11-04T09:34:37;100108.22;;;20.31;65.06
38786;BME280;24535;45.508;12.252;2022-11-04T09:45:38;100125.09;;;20.31;65.33
38786;BME280;24535;45.508;12.252;2022-11-04T09:48:07;100112.34;;;20.33;64.81
38786;BME280;24535;45.508;12.252;2022-11-04T09:51:02;100109.31;;;20.36;64.79
38786;BME280;24535;45.508;12.252;2022-11-04T09:53:47;100110.00;;;20.38;64.55
38786;BME280;24535;45.508;12.252;2022-11-04T09:58:42;100125.72;;;20.56;64.53
38786;BME280;24535;45.508;12.252;2022-11-04T10:09:45;100132.28;;;20.98;63.06
38786;BME280;24535;45.508;12.252;2022-11-04T10:15:34;100114.38;;;21.13;61.85
38786;BME280;24535;45.508;12.252;2022-11-04T10:18:38;100117.31;;;21.18;61.94
38786;BME280;24535;45.508;12.252;2022-11-04T10:27:14;100101.31;;;21.25;59.83
38786;BME280;24535;45.508;12.252;2022-11-04T10:29:51;100097.00;;;21.24;60.10
38786;BME280;24535;45.508;12.252;2022-11-04T10:32:25;100102.16;;;21.26;59.54
38786;BME280;24535;45.508;12.252;2022-11-04T10:34:59;100109.38;;;21.25;59.72
38786;BME280;24535;45.508;12.252;2022-11-04T10:37:27;100106.69;;;21.25;59.50
38786;BME280;24535;45.508;12.252;2022-11-04T10:40:22;100112.03;;;21.25;59.24
38786;BME280;24535;45.508;12.252;2022-11-04T10:42:46;100120.66;;;21.20;59.24
38786;BME280;24535;45.508;12.252;2022-11-04T10:45:11;100116.31;;;21.19;58.54
38786;BME280;24535;45.508;12.252;2022-11-04T10:50:25;100129.25;;;21.16;57.61
38786;BME280;24535;45.508;12.252;2022-11-04T10:53:00;100133.94;;;21.14;58.04
38786;BME280;24535;45.508;12.252;2022-11-04T10:55:34;100132.28;;;21.13;57.47
38786;BME280;24535;45.508;12.252;2022-11-04T10:58:02;100127.31;;;21.10;56.07
38786;BME280;24535;45.508;12.252;2022-11-04T11:03:38;100143.56;;;21.08;57.28
38786;BME280;24535;45.508;12.252;2022-11-04T11:06:32;100135.72;;;21.07;57.30
38786;BME280;24535;45.508;12.252;2022-11-04T11:09:10;100136.91;;;21.04;56.81
38786;BME280;24535;45.508;12.252;2022-11-04T11:11:42;100129.09;;;21.03;57.13
38786;BME280;24535;45.508;12.252;2022-11-04T11:14:32;100131.31;;;20.99;56.31
38786;BME280;24535;45.508;12.252;2022-11-04T11:17:22;100114.75;;;20.95;56.16
38786;BME280;24535;45.508;12.252;2022-11-04T11:19:56;100130.16;;;20.93;56.61
38786;BME280;24535;45.508;12.252;2022-11-04T11:30:28;100117.53;;;20.87;55.70
38786;BME280;24535;45.508;12.252;2022-11-04T11:33:17;100121.50;;;20.91;56.02
38786;BME280;24535;45.508;12.252;2022-11-04T11:35:54;100137.22;;;20.94;56.41
38786;BME280;24535;45.508;12.252;2022-11-04T11:38:37;100134.34;;;20.96;56.37
38786;BME280;24535;45.508;12.252;2022-11-04T11:41:07;100148.56;;;20.96;56.35
38786;BME280;24535;45.508;12.252;2022-11-04T11:43:34;100130.47;;;20.98;56.62
38786;BME280;24535;45.508;12.252;2022-11-04T11:46:01;100138.66;;;20.97;56.04
38786;BME280;24535;45.508;12.252;2022-11-04T11:48:41;100148.56;;;20.96;56.16
38786;BME280;24535;45.508;12.252;2022-11-04T11:51:12;100147.94;;;20.94;55.77
38786;BME280;24535;45.508;12.252;2022-11-04T11:53:38;100154.94;;;20.95;55.61
38786;BME280;24535;45.508;12.252;2022-11-04T11:56:29;100136.34;;;20.94;56.09
38786;BME280;24535;45.508;12.252;2022-11-04T11:59:14;100138.22;;;20.93;55.79
38786;BME280;24535;45.508;12.252;2022-11-04T12:01:50;100139.22;;;20.92;55.94
38786;BME280;24535;45.508;12.252;2022-11-04T12:04:18;100139.44;;;20.91;56.17
38786;BME280;24535;45.508;12.252;2022-11-04T12:09:56;100112.81;;;20.89;55.55
38786;BME280;24535;45.508;12.252;2022-11-04T12:16:14;100114.03;;;20.87;55.18
38786;BME280;24535;45.508;12.252;2022-11-04T12:19:23;100107.81;;;20.86;55.46
38786;BME280;24535;45.508;12.252;2022-11-04T12:22:26;100109.03;;;20.84;55.19
38786;BME280;24535;45.508;12.252;2022-11-04T12:25:23;100109.22;;;20.82;55.07
38786;BME280;24535;45.508;12.252;2022-11-04T12:30:36;100099.06;;;20.78;56.02
38786;BME280;24535;45.508;12.252;2022-11-04T12:44:12;100108.47;;;20.73;54.85
38786;BME280;24535;45.508;12.252;2022-11-04T12:52:55;100124.38;;;20.75;55.84
38786;BME280;24535;45.508;12.252;2022-11-04T12:55:38;100133.22;;;20.76;55.36
38786;BME280;24535;45.508;12.252;2022-11-04T13:00:52;100124.16;;;20.77;54.81
38786;BME280;24535;45.508;12.252;2022-11-04T13:04:29;100133.69;;;20.79;55.67
38786;BME280;24535;45.508;12.252;2022-11-04T13:06:42;100126.66;;;20.78;54.97
38786;BME280;24535;45.508;12.252;2022-11-04T13:09:16;100138.66;;;20.82;55.51
38786;BME280;24535;45.508;12.252;2022-11-04T13:11:53;100149.19;;;20.84;55.98
38786;BME280;24535;45.508;12.252;2022-11-04T13:14:20;100144.47;;;20.86;55.70
38786;BME280;24535;45.508;12.252;2022-11-04T13:16:55;100140.63;;;20.88;55.19
38786;BME280;24535;45.508;12.252;2022-11-04T13:20:01;100138.41;;;20.92;54.43
38786;BME280;24535;45.508;12.252;2022-11-04T13:22:31;100133.25;;;20.90;54.99
38786;BME280;24535;45.508;12.252;2022-11-04T13:25:05;100131.38;;;20.91;54.70
38786;BME280;24535;45.508;12.252;2022-11-04T13:27:36;100125.22;;;20.90;54.99
38786;BME280;24535;45.508;12.252;2022-11-04T13:30:29;100134.34;;;20.96;54.36
38786;BME280;24535;45.508;12.252;2022-11-04T13:45:11;100121.78;;;20.96;54.45
38786;BME280;24535;45.508;12.252;2022-11-04T13:47:54;100117.44;;;20.95;54.63
38786;BME280;24535;45.508;12.252;2022-11-04T13:50:35;100115.41;;;20.97;54.31
38786;BME280;24535;45.508;12.252;2022-11-04T13:53:19;100127.31;;;20.95;54.54
38786;BME280;24535;45.508;12.252;2022-11-04T13:55:48;100115.78;;;20.94;55.12
38786;BME280;24535;45.508;12.252;2022-11-04T13:58:23;100119.28;;;20.95;54.74
38786;BME280;24535;45.508;12.252;2022-11-04T14:01:10;100130.47;;;20.98;54.47
38786;BME280;24535;45.508;12.252;2022-11-04T14:12:39;100141.91;;;21.07;54.12
38786;BME280;24535;45.508;12.252;2022-11-04T14:15:12;100142.91;;;21.06;54.25
38786;BME280;24535;45.508;12.252;2022-11-04T14:23:30;100144.75;;;21.06;53.16
38786;BME280;24535;45.508;12.252;2022-11-04T14:25:59;100143.09;;;21.05;53.77
38786;BME280;24535;45.508;12.252;2022-11-04T14:28:27;100140.88;;;21.08;52.72
38786;BME280;24535;45.508;12.252;2022-11-04T14:34:40;100136.16;;;21.10;54.08
38786;BME280;24535;45.508;12.252;2022-11-04T14:39:44;100147.28;;;21.07;54.21
38786;BME280;24535;45.508;12.252;2022-11-04T14:42:11;100158.25;;;21.12;53.66
38786;BME280;24535;45.508;12.252;2022-11-04T14:44:42;100152.44;;;21.09;54.41
38786;BME280;24535;45.508;12.252;2022-11-04T14:47:26;100158.25;;;21.12;54.13
38786;BME280;24535;45.508;12.252;2022-11-04T14:57:49;100143.22;;;21.11;53.35
38786;BME280;24535;45.508;12.252;2022-11-04T15:05:31;100147.06;;;21.09;53.14
38786;BME280;24535;45.508;12.252;2022-11-04T15:13:03;100135.72;;;21.07;53.77
38786;BME280;24535;45.508;12.252;2022-11-04T15:15:51;100148.94;;;21.08;52.99
38786;BME280;24535;45.508;12.252;2022-11-04T15:21:40;100157.69;;;21.02;53.29
38786;BME280;24535;45.508;12.252;2022-11-04T15:24:13;100161.59;;;20.99;52.84
38786;BME280;24535;45.508;12.252;2022-11-04T15:26:48;100174.97;;;20.99;51.77
38786;BME280;24535;45.508;12.252;2022-11-04T15:29:21;100171.16;;;20.94;52.68
38786;BME280;24535;45.508;12.252;2022-11-04T15:35:11;100172.38;;;20.91;50.71
38786;BME280;24535;45.508;12.252;2022-11-04T15:37:40;100172.47;;;20.83;51.24
38786;BME280;24535;45.508;12.252;2022-11-04T15:40:31;100172.47;;;20.83;50.89
38786;BME280;24535;45.508;12.252;2022-11-04T15:43:01;100182.03;;;20.78;51.44
38786;BME280;24535;45.508;12.252;2022-11-04T15:45:38;100175.31;;;20.67;51.33
38786;BME280;24535;45.508;12.252;2022-11-04T15:51:17;100172.13;;;20.48;51.28
38786;BME280;24535;45.508;12.252;2022-11-04T15:53:57;100174.69;;;20.42;51.59
38786;BME280;24535;45.508;12.252;2022-11-04T15:56:31;100188.94;;;20.34;51.78
38786;BME280;24535;45.508;12.252;2022-11-04T15:58:59;100199.72;;;20.26;52.29
38786;BME280;24535;45.508;12.252;2022-11-04T16:01:25;100195.91;;;20.20;52.20
38786;BME280;24535;45.508;12.252;2022-11-04T16:03:55;100194.50;;;20.10;52.62
38786;BME280;24535;45.508;12.252;2022-11-04T16:18:54;100211.13;;;19.66;54.86
38786;BME280;24535;45.508;12.252;2022-11-04T16:21:26;100218.13;;;19.59;55.30
38786;BME280;24535;45.508;12.252;2022-11-04T16:24:46;100219.00;;;19.51;56.01
38786;BME280;24535;45.508;12.252;2022-11-04T16:30:35;100228.25;;;19.24;55.35
38786;BME280;24535;45.508;12.252;2022-11-04T16:46:55;100244.53;;;18.90;56.51
38786;BME280;24535;45.508;12.252;2022-11-04T16:49:45;100251.53;;;18.83;57.11
38786;BME280;24535;45.508;12.252;2022-11-04T16:52:14;100262.41;;;18.73;56.69
38786;BME280;24535;45.508;12.252;2022-11-04T16:54:42;100269.34;;;18.66;57.45
38786;BME280;24535;45.508;12.252;2022-11-04T17:00:20;100279.03;;;18.59;58.56
38786;BME280;24535;45.508;12.252;2022-11-04T17:03:13;100281.19;;;18.55;58.33
38786;BME280;24535;45.508;12.252;2022-11-04T17:05:46;100281.84;;;18.49;58.03
38786;BME280;24535;45.508;12.252;2022-11-04T17:08:12;100294.38;;;18.48;58.69
38786;BME280;24535;45.508;12.252;2022-11-04T17:14:18;100311.19;;;18.41;59.24
38786;BME280;24535;45.508;12.252;2022-11-04T17:27:30;100319.47;;;18.21;59.60
38786;BME280;24535;45.508;12.252;2022-11-04T17:30:04;100310.63;;;18.13;59.40
38786;BME280;24535;45.508;12.252;2022-11-04T17:32:30;100315.44;;;18.09;59.44
38786;BME280;24535;45.508;12.252;2022-11-04T17:38:17;100323.75;;;18.06;59.23
38786;BME280;24535;45.508;12.252;2022-11-04T17:44:05;100337.03;;;17.98;60.02
38786;BME280;24535;45.508;12.252;2022-11-04T17:46:36;100337.69;;;17.92;60.29
38786;BME280;24535;45.508;12.252;2022-11-04T17:52:12;100357.16;;;17.84;60.06
38786;BME280;24535;45.508;12.252;2022-11-04T17:55:11;100350.47;;;17.80;59.78
38786;BME280;24535;45.508;12.252;2022-11-04T17:57:40;100346.28;;;17.77;60.36
38786;BME280;24535;45.508;12.252;2022-11-04T18:02:41;100356.38;;;17.74;60.42
38786;BME280;24535;45.508;12.252;2022-11-04T18:07:45;100374.75;;;17.77;60.26
38786;BME280;24535;45.508;12.252;2022-11-04T18:10:52;100375.59;;;17.77;59.88
38786;BME280;24535;45.508;12.252;2022-11-04T18:13:58;100378.44;;;17.76;60.65
38786;BME280;24535;45.508;12.252;2022-11-04T18:16:23;100379.69;;;17.72;60.18
38786;BME280;24535;45.508;12.252;2022-11-04T18:18:49;100378.19;;;17.69;60.67
38786;BME280;24535;45.508;12.252;2022-11-04T18:21:14;100382.00;;;17.67;60.96
38786;BME280;24535;45.508;12.252;2022-11-04T18:23:58;100389.00;;;17.68;60.45
38786;BME280;24535;45.508;12.252;2022-11-04T18:26:24;100386.81;;;17.63;60.42
38786;BME280;24535;45.508;12.252;2022-11-04T18:28:50;100390.31;;;17.64;61.00
38786;BME280;24535;45.508;12.252;2022-11-04T18:31:25;100394.94;;;17.62;60.63
38786;BME280;24535;45.508;12.252;2022-11-04T18:46:56;100393.34;;;17.43;61.29
38786;BME280;24535;45.508;12.252;2022-11-04T20:34:58;100458.00;;;16.99;61.44
38786;BME280;24535;45.508;12.252;2022-11-04T20:37:24;100451.47;;;16.94;62.03
38786;BME280;24535;45.508;12.252;2022-11-04T20:48:44;100463.34;;;16.99;61.99
38786;BME280;24535;45.508;12.252;2022-11-04T21:06:53;100481.03;;;16.91;61.47
38786;BME280;24535;45.508;12.252;2022-11-04T21:20:46;100476.63;;;16.72;61.59
38786;BME280;24535;45.508;12.252;2022-11-04T21:23:12;100485.78;;;16.69;61.43
38786;BME280;24535;45.508;12.252;2022-11-04T21:26:05;100485.78;;;16.69;61.95
38786;BME280;24535;45.508;12.252;2022-11-04T21:28:31;100485.22;;;16.66;62.30
38786;BME280;24535;45.508;12.252;2022-11-04T21:31:02;100482.69;;;16.64;62.49
38786;BME280;24535;45.508;12.252;2022-11-04T21:33:38;100479.91;;;16.66;62.29
38786;BME280;24535;45.508;12.252;2022-11-04T21:36:09;100488.97;;;16.73;62.54
38786;BME280;24535;45.508;12.252;2022-11-04T21:38:36;100486.44;;;16.71;62.38
38786;BME280;24535;45.508;12.252;2022-11-04T21:41:02;100496.25;;;16.71;62.10
38786;BME280;24535;45.508;12.252;2022-11-04T22:16:57;100516.19;;;16.20;62.33
38786;BME280;24535;45.508;12.252;2022-11-04T22:20:00;100514.22;;;16.22;63.04
38786;BME280;24535;45.508;12.252;2022-11-04T22:22:29;100512.97;;;16.16;62.90
38786;BME280;24535;45.508;12.252;2022-11-04T22:24:56;100538.72;;;16.16;62.78
38786;BME280;24535;45.508;12.252;2022-11-04T22:27:29;100526.13;;;16.08;63.34
38786;BME280;24535;45.508;12.252;2022-11-04T22:29:56;100537.91;;;16.05;63.62
38786;BME280;24535;45.508;12.252;2022-11-04T22:38:03;100543.38;;;15.94;63.67
38786;BME280;24535;45.508;12.252;2022-11-04T22:40:35;100552.19;;;15.95;63.92
38786;BME280;24535;45.508;12.252;2022-11-04T22:43:02;100545.63;;;15.89;63.39
38786;BME280;24535;45.508;12.252;2022-11-04T22:45:28;100544.78;;;15.89;63.67
38786;BME280;24535;45.508;12.252;2022-11-04T22:47:53;100540.31;;;15.89;64.16
38786;BME280;24535;45.508;12.252;2022-11-04T22:50:19;100537.38;;;15.92;64.03
38786;BME280;24535;45.508;12.252;2022-11-04T22:52:52;100537.38;;;15.92;63.92
38786;BME280;24535;45.508;12.252;2022-11-04T22:55:17;100535.56;;;15.93;64.52
38786;BME280;24535;45.508;12.252;2022-11-04T22:57:43;100543.94;;;15.98;63.82
38786;BME280;24535;45.508;12.252;2022-11-04T23:00:09;100541.84;;;16.01;64.25
38786;BME280;24535;45.508;12.252;2022-11-04T23:12:28;100551.59;;;16.11;63.38
38786;BME280;24535;45.508;12.252;2022-11-04T23:15:15;100551.88;;;16.07;63.52
38786;BME280;24535;45.508;12.252;2022-11-04T23:17:59;100556.50;;;16.05;63.38
38786;BME280;24535;45.508;12.252;2022-11-04T23:20:43;100568.81;;;16.06;63.50
38786;BME280;24535;45.508;12.252;2022-11-04T23:23:08;100563.34;;;16.08;63.42
38786;BME280;24535;45.508;12.252;2022-11-04T23:25:52;100562.22;;;16.11;63.32
38786;BME280;24535;45.508;12.252;2022-11-04T23:28:18;100567.38;;;16.12;62.60
38786;BME280;24535;45.508;12.252;2022-11-04T23:31:02;100566.56;;;16.12;62.37
38786;BME280;24535;45.508;12.252;2022-11-04T23:33:27;100563.22;;;16.10;62.45
38786;BME280;24535;45.508;12.252;2022-11-04T23:36:11;100556.91;;;16.11;62.28
38786;BME280;24535;45.508;12.252;2022-11-04T23:38:55;100562.06;;;16.12;62.76
38786;BME280;24535;45.508;12.252;2022-11-04T23:41:20;100549.94;;;16.10;62.19